Time;durP1;ratioP1;P1;durP2;ratioP2;P2;SDS_P1;SDS_P2;PMS_P1;PMS_P2;Temp;Humidity;BMP_temperature;BMP_pressure;BME280_temperature;BME280_humidity;BME280_pressure;Samples;Min_cycle;Max_cycle;Signal;HPM_P1;HPM_P2
2022/03/13 15:40:24;;;;;;;13.13;10.02;;;17.50;86.70;;;;;;6187855;23;20021;-38
2022/03/13 15:42:51;;;;;;;15.13;10.25;;;17.50;86.30;;;;;;6158316;23;20081;-38
2022/03/13 15:45:17;;;;;;;14.75;9.57;;;17.40;86.60;;;;;;6100256;23;20332;-37
2022/03/13 15:47:42;;;;;;;12.73;9.48;;;17.30;86.20;;;;;;6084009;23;20114;-38
2022/03/13 15:50:08;;;;;;;14.10;9.63;;;17.20;86.30;;;;;;6098915;23;20018;-39
2022/03/13 15:52:35;;;;;;;15.02;9.93;;;17.20;86.90;;;;;;6047348;23;20022;-39
2022/03/13 15:55:01;;;;;;;13.07;9.95;;;17.10;88.00;;;;;;6091951;23;20121;-38
2022/03/13 15:57:28;;;;;;;13.90;9.93;;;17.10;88.40;;;;;;6074452;23;20026;-38
2022/03/13 15:59:58;;;;;;;12.43;10.13;;;17.00;89.00;;;;;;6091225;23;20052;-39
2022/03/13 16:02:33;;;;;;;12.43;9.27;;;17.00;89.60;;;;;;6088345;23;20033;-38
2022/03/13 16:04:58;;;;;;;14.38;9.60;;;16.90;89.80;;;;;;6088195;23;20027;-39
2022/03/13 16:07:24;;;;;;;12.32;9.73;;;16.90;90.00;;;;;;6043574;23;20026;-39
2022/03/13 16:09:54;;;;;;;16.25;10.02;;;16.80;90.10;;;;;;6086996;23;20018;-39
2022/03/13 16:12:24;;;;;;;11.85;9.40;;;16.80;90.40;;;;;;6085186;23;20339;-38
2022/03/13 16:14:50;;;;;;;14.50;9.35;;;16.70;90.50;;;;;;6086816;23;20026;-39
2022/03/13 16:17:16;;;;;;;13.95;9.32;;;16.70;90.90;;;;;;6069600;23;20022;-39
2022/03/13 16:19:48;;;;;;;12.13;9.20;;;16.60;91.20;;;;;;6087836;23;20023;-39
2022/03/13 16:22:14;;;;;;;12.52;9.60;;;16.60;91.50;;;;;;6086439;23;20060;-38
2022/03/13 16:24:41;;;;;;;11.10;9.07;;;16.50;91.70;;;;;;6087920;23;20018;-39
2022/03/13 16:27:07;;;;;;;11.93;9.90;;;16.40;91.90;;;;;;6070291;23;20033;-39
2022/03/13 16:29:34;;;;;;;12.38;9.25;;;16.30;92.20;;;;;;6087811;23;20018;-39
2022/03/13 16:32:00;;;;;;;11.52;9.23;;;16.20;92.80;;;;;;6086313;23;20093;-36
2022/03/13 16:34:25;;;;;;;13.27;10.20;;;16.10;92.80;;;;;;6087148;23;20038;-39
2022/03/13 16:36:51;;;;;;;12.13;10.25;;;16.00;93.10;;;;;;6071235;23;20050;-39
2022/03/13 16:39:17;;;;;;;11.95;9.65;;;15.90;93.40;;;;;;6071237;23;20022;-39
2022/03/13 16:41:46;;;;;;;15.90;10.00;;;15.90;93.60;;;;;;6116772;23;20124;-39
2022/03/13 16:44:13;;;;;;;12.38;9.50;;;15.70;93.70;;;;;;6115595;23;20390;-38
2022/03/13 16:46:41;;;;;;;15.13;11.30;;;15.60;93.70;;;;;;6103089;23;20022;-38
2022/03/13 16:49:06;;;;;;;14.57;10.88;;;15.50;93.40;;;;;;6113881;23;20022;-39
2022/03/13 16:51:32;;;;;;;15.13;11.07;;;15.40;93.20;;;;;;6116900;23;20026;-38
2022/03/13 16:53:58;;;;;;;17.95;12.00;;;15.30;93.00;;;;;;6065481;23;20108;-39
2022/03/13 16:56:25;;;;;;;16.38;11.38;;;15.20;92.90;;;;;;6078656;23;20022;-39
2022/03/13 16:58:50;;;;;;;17.40;11.25;;;15.10;92.60;;;;;;6112834;23;20393;-39
2022/03/13 17:01:16;;;;;;;19.38;12.23;;;15.00;92.40;;;;;;6091465;23;20018;-37
2022/03/13 17:03:44;;;;;;;15.13;11.85;;;14.80;92.30;;;;;;6116436;23;20030;-39
2022/03/13 17:06:11;;;;;;;16.60;12.15;;;14.70;92.40;;;;;;6061135;23;20018;-37
2022/03/13 17:08:36;;;;;;;18.23;13.00;;;14.60;92.60;;;;;;6082507;23;20029;-39
2022/03/13 17:11:03;;;;;;;19.00;12.05;;;14.40;92.70;;;;;;6117704;23;20358;-39
2022/03/13 17:13:29;;;;;;;14.88;11.77;;;14.30;92.90;;;;;;6116347;23;20417;-39
2022/03/13 17:15:55;;;;;;;17.20;12.10;;;14.10;93.10;;;;;;6067382;23;20022;-39
2022/03/13 17:18:21;;;;;;;16.60;12.50;;;14.00;93.00;;;;;;6100842;23;20022;-39
2022/03/13 17:20:49;;;;;;;18.60;12.00;;;13.90;92.70;;;;;;6117648;23;20121;-39
2022/03/13 17:23:15;;;;;;;18.08;12.10;;;13.80;92.70;;;;;;6089686;23;20089;-38
2022/03/13 17:25:43;;;;;;;17.05;12.32;;;13.70;92.70;;;;;;6116442;23;20393;-39
2022/03/13 17:28:08;;;;;;;16.33;12.65;;;13.60;92.70;;;;;;6101179;23;20026;-39
2022/03/13 17:30:34;;;;;;;17.63;12.45;;;13.50;92.90;;;;;;6116581;23;20022;-39
2022/03/13 17:33:04;;;;;;;15.60;12.18;;;13.40;92.70;;;;;;6111603;23;20514;-37
2022/03/13 17:35:32;;;;;;;16.23;12.07;;;13.30;92.50;;;;;;6101567;23;20036;-38
2022/03/13 17:37:58;;;;;;;19.45;13.38;;;13.20;92.60;;;;;;6098049;23;20045;-38
2022/03/13 17:40:24;;;;;;;21.63;13.50;;;13.10;92.90;;;;;;6088448;23;20473;-36
2022/03/13 17:42:50;;;;;;;19.20;12.88;;;13.10;92.90;;;;;;6112106;23;20457;-38
2022/03/13 17:45:16;;;;;;;17.88;13.07;;;13.00;92.70;;;;;;6089546;23;20025;-39
2022/03/13 17:47:42;;;;;;;18.77;13.07;;;12.90;92.80;;;;;;6075212;23;20025;-38
2022/03/13 17:50:10;;;;;;;20.30;13.10;;;12.80;92.80;;;;;;6065924;23;20025;-39
2022/03/13 17:52:36;;;;;;;18.77;13.45;;;12.70;92.70;;;;;;6065023;23;20022;-38
2022/03/13 17:55:02;;;;;;;17.55;13.00;;;12.70;92.80;;;;;;6115191;23;20338;-38
2022/03/13 17:57:28;;;;;;;18.23;13.15;;;12.60;92.70;;;;;;6101124;23;20026;-38
2022/03/13 17:59:54;;;;;;;20.30;13.00;;;12.60;92.80;;;;;;6115663;23;20025;-38
2022/03/13 18:02:19;;;;;;;19.90;13.60;;;12.50;92.90;;;;;;6088809;23;20391;-39
2022/03/13 18:04:45;;;;;;;18.90;12.95;;;12.40;93.10;;;;;;6089247;23;20068;-39
2022/03/13 18:07:13;;;;;;;18.52;13.27;;;12.30;93.30;;;;;;6072689;23;20021;-39
2022/03/13 18:09:39;;;;;;;17.15;13.15;;;12.20;93.60;;;;;;6088730;23;20058;-37
2022/03/13 18:12:11;;;;;;;20.25;13.10;;;12.10;94.10;;;;;;6115252;23;20120;-38
2022/03/13 18:14:37;;;;;;;17.45;12.95;;;12.00;94.30;;;;;;6114235;23;20410;-39
2022/03/13 18:17:03;;;;;;;16.83;12.90;;;11.90;94.20;;;;;;6071727;23;20018;-38
2022/03/13 18:19:29;;;;;;;20.10;14.48;;;11.80;94.20;;;;;;6112431;23;20022;-37
2022/03/13 18:21:54;;;;;;;18.45;13.68;;;11.70;94.20;;;;;;6114509;23;20022;-38
2022/03/13 18:24:24;;;;;;;17.73;13.82;;;11.70;94.30;;;;;;6140135;23;20086;-39
2022/03/13 18:26:50;;;;;;;17.17;13.32;;;11.60;94.40;;;;;;6100704;23;20327;-39
2022/03/13 18:29:18;;;;;;;18.13;13.07;;;11.60;94.60;;;;;;6114308;23;20022;-39
2022/03/13 18:31:44;;;;;;;19.77;13.35;;;11.50;94.70;;;;;;6115005;23;20018;-37
2022/03/13 18:34:11;;;;;;;19.58;13.02;;;11.40;94.70;;;;;;6114308;23;20041;-39
2022/03/13 18:36:36;;;;;;;21.20;14.00;;;11.40;94.80;;;;;;6100864;23;20500;-37
2022/03/13 18:39:03;;;;;;;18.40;13.57;;;11.30;94.80;;;;;;6112978;23;20026;-39
2022/03/13 18:41:29;;;;;;;18.25;13.00;;;11.30;94.90;;;;;;6085593;23;20026;-38
2022/03/13 18:43:59;;;;;;;19.42;12.95;;;11.20;95.00;;;;;;6086690;23;20025;-38
2022/03/13 18:46:25;;;;;;;19.70;14.10;;;11.10;95.10;;;;;;6078293;23;20017;-38
2022/03/13 18:48:52;;;;;;;18.48;13.30;;;11.10;95.20;;;;;;6083669;23;20030;-38
2022/03/13 18:51:21;;;;;;;18.27;13.10;;;11.00;95.30;;;;;;6073966;23;20437;-37
2022/03/13 18:53:47;;;;;;;18.77;13.43;;;11.00;95.20;;;;;;6062178;23;20387;-38
2022/03/13 18:56:14;;;;;;;19.27;13.95;;;10.90;95.30;;;;;;6113313;23;20062;-38
2022/03/13 18:58:39;;;;;;;18.75;13.25;;;10.80;95.30;;;;;;6074275;23;20030;-35
2022/03/13 19:01:05;;;;;;;18.73;13.55;;;10.80;95.30;;;;;;6087967;23;20021;-36
2022/03/13 19:03:32;;;;;;;19.15;13.38;;;10.80;95.70;;;;;;6112987;23;20033;-38
2022/03/13 19:05:58;;;;;;;17.23;12.35;;;10.70;95.40;;;;;;6113519;23;20014;-38
2022/03/13 19:08:25;;;;;;;21.25;14.60;;;10.70;95.60;;;;;;6097452;23;20413;-36
2022/03/13 19:10:50;;;;;;;17.25;13.27;;;10.60;95.60;;;;;;6113100;23;20473;-37
2022/03/13 19:13:19;;;;;;;20.73;13.60;;;10.50;95.70;;;;;;6112376;23;20109;-37
2022/03/13 19:15:46;;;;;;;20.55;13.48;;;10.50;95.80;;;;;;6114921;23;20018;-38
2022/03/13 19:18:14;;;;;;;19.35;13.05;;;10.50;95.90;;;;;;6074792;23;20025;-37
2022/03/13 19:20:48;;;;;;;21.30;14.18;;;10.40;96.10;;;;;;6115391;23;20026;-39
2022/03/13 19:23:15;;;;;;;20.15;13.65;;;10.30;96.20;;;;;;6081854;23;20057;-37
2022/03/13 19:25:41;;;;;;;22.23;14.70;;;10.30;96.30;;;;;;6113441;23;20022;-37
2022/03/13 19:28:07;;;;;;;19.33;13.48;;;10.20;96.40;;;;;;6100133;23;20026;-37
2022/03/13 19:30:33;;;;;;;21.83;14.43;;;10.20;96.40;;;;;;6118385;23;20044;-36
2022/03/13 19:33:01;;;;;;;20.70;14.10;;;10.20;96.40;;;;;;6114090;23;20026;-39
2022/03/13 19:35:29;;;;;;;18.43;13.20;;;10.10;96.50;;;;;;6129986;23;20018;-36
2022/03/13 19:37:59;;;;;;;16.98;10.45;;;10.00;96.50;;;;;;6104373;23;20022;-38
2022/03/13 19:40:35;;;;;;;20.00;14.10;;;10.00;96.70;;;;;;6118010;23;20137;-37
2022/03/13 19:43:05;;;;;;;21.63;15.10;;;10.00;96.70;;;;;;6117479;23;20365;-37
2022/03/13 19:45:31;;;;;;;21.17;14.03;;;9.90;96.80;;;;;;6118343;23;20485;-39
2022/03/13 19:47:58;;;;;;;20.70;14.27;;;9.80;96.70;;;;;;6076593;23;20014;-41
2022/03/13 19:50:27;;;;;;;19.50;13.93;;;10.00;96.80;;;;;;6091630;23;20026;-39
2022/03/13 19:52:55;;;;;;;22.50;14.43;;;9.70;96.70;;;;;;6117832;23;20030;-38
2022/03/13 19:55:21;;;;;;;20.60;14.00;;;9.70;96.80;;;;;;6116909;23;20341;-39
2022/03/13 19:57:57;;;;;;;19.37;13.83;;;9.70;96.90;;;;;;6101870;23;20021;-37
2022/03/13 20:00:22;;;;;;;20.50;12.80;;;9.60;96.90;;;;;;6117410;23;20041;-39
2022/03/13 20:02:49;;;;;;;19.23;13.50;;;9.60;96.90;;;;;;6117333;23;20393;-40
2022/03/13 20:05:20;;;;;;;19.10;12.80;;;9.50;96.90;;;;;;6116693;23;20382;-35
2022/03/13 20:07:46;;;;;;;19.07;12.60;;;9.60;96.70;;;;;;6100064;23;20508;-39
2022/03/13 20:10:12;;;;;;;17.97;12.07;;;9.50;96.50;;;;;;6117259;23;20025;-39
2022/03/13 20:12:39;;;;;;;19.60;12.50;;;9.50;96.50;;;;;;6113068;23;20053;-39
2022/03/13 20:15:07;;;;;;;18.33;12.37;;;9.50;96.60;;;;;;6117124;23;20425;-39
2022/03/13 20:17:34;;;;;;;18.20;12.37;;;9.40;96.50;;;;;;6100486;23;20576;-39
2022/03/13 20:20:01;;;;;;;17.60;11.73;;;9.40;96.60;;;;;;6115579;23;20300;-37
2022/03/13 20:22:28;;;;;;;16.73;11.90;;;9.40;96.70;;;;;;6115395;23;20069;-35
2022/03/13 20:24:55;;;;;;;18.20;11.43;;;9.40;96.60;;;;;;6145567;23;20024;-37
2022/03/13 20:27:27;;;;;;;15.37;10.93;;;9.40;96.60;;;;;;6187157;23;20607;-38
2022/03/13 20:29:53;;;;;;;17.87;11.60;;;9.30;96.70;;;;;;6205272;23;20396;-36
2022/03/13 20:32:20;;;;;;;15.17;11.13;;;9.30;96.70;;;;;;6201440;23;20044;-37
2022/03/13 20:34:46;;;;;;;17.10;11.70;;;9.30;96.70;;;;;;6206299;23;20103;-36
2022/03/13 20:37:12;;;;;;;15.40;11.73;;;9.20;96.70;;;;;;6187134;23;20107;-33
2022/03/13 20:39:38;;;;;;;17.37;11.33;;;9.20;96.70;;;;;;6202141;23;20100;-37
2022/03/13 20:42:06;;;;;;;18.03;11.10;;;9.20;96.70;;;;;;6161030;23;20032;-38
2022/03/13 20:44:33;;;;;;;15.77;11.27;;;9.20;96.80;;;;;;6204837;23;20021;-38
2022/03/13 20:46:59;;;;;;;18.77;11.33;;;9.20;96.80;;;;;;6185650;23;20515;-37
2022/03/13 20:49:25;;;;;;;13.90;10.53;;;9.10;96.70;;;;;;6200936;23;20094;-37
2022/03/13 20:51:52;;;;;;;13.23;11.00;;;9.20;96.90;;;;;;6204199;23;20091;-38
2022/03/13 20:54:23;;;;;;;16.57;10.10;;;9.10;96.90;;;;;;6202300;23;20027;-36
2022/03/13 20:56:50;;;;;;;16.00;11.47;;;9.00;96.90;;;;;;6188074;23;20020;-37
2022/03/13 20:59:18;;;;;;;14.53;10.73;;;9.10;96.90;;;;;;6200660;23;20339;-37
2022/03/13 21:01:48;;;;;;;16.10;11.23;;;9.00;96.90;;;;;;6204263;23;20020;-38
2022/03/13 21:04:14;;;;;;;15.13;10.60;;;9.00;97.00;;;;;;6176299;23;20131;-34
2022/03/13 21:06:43;;;;;;;15.80;10.53;;;9.00;97.00;;;;;;6189414;23;20084;-37
2022/03/13 21:09:11;;;;;;;16.33;10.70;;;8.90;97.10;;;;;;6176502;23;20024;-34
2022/03/13 21:11:40;;;;;;;15.70;10.87;;;8.90;97.10;;;;;;6204221;23;20016;-37
2022/03/13 21:14:10;;;;;;;16.60;10.80;;;8.90;97.00;;;;;;6187829;23;20075;-36
2022/03/13 21:16:39;;;;;;;14.50;10.27;;;8.90;96.90;;;;;;6173244;23;20991;-37
2022/03/13 21:19:05;;;;;;;14.90;10.87;;;8.90;97.00;;;;;;6199585;23;20071;-37
2022/03/13 21:21:31;;;;;;;14.87;10.37;;;8.90;97.00;;;;;;6203145;23;20124;-38
2022/03/13 21:23:57;;;;;;;15.73;9.77;;;8.90;97.00;;;;;;6201684;23;20515;-38
2022/03/13 21:26:23;;;;;;;16.40;10.67;;;8.90;97.00;;;;;;6191899;23;20020;-34
2022/03/13 21:28:48;;;;;;;14.43;10.40;;;9.00;97.00;;;;;;6200091;23;20032;-38
2022/03/13 21:31:14;;;;;;;13.77;9.80;;;8.90;97.00;;;;;;6204992;23;20020;-37
2022/03/13 21:33:40;;;;;;;15.47;9.77;;;8.90;97.00;;;;;;6202155;23;20033;-37
2022/03/13 21:36:12;;;;;;;19.00;10.37;;;8.90;97.00;;;;;;6204786;23;20411;-38
2022/03/13 21:38:37;;;;;;;12.50;8.93;;;8.90;97.00;;;;;;6195822;23;20024;-38
2022/03/13 21:41:04;;;;;;;14.23;9.93;;;8.90;96.90;;;;;;6203211;23;20023;-37
2022/03/13 21:43:30;;;;;;;13.70;10.03;;;9.00;97.00;;;;;;6202177;23;20028;-38
2022/03/13 21:45:55;;;;;;;14.00;10.07;;;9.00;97.00;;;;;;6204754;23;20016;-37
2022/03/13 21:48:21;;;;;;;14.50;10.10;;;9.00;97.00;;;;;;6187634;23;20062;-38
2022/03/13 21:50:47;;;;;;;15.87;10.40;;;9.00;97.10;;;;;;6204735;23;20024;-37
2022/03/13 21:53:13;;;;;;;14.03;10.13;;;9.00;97.30;;;;;;6204780;23;20103;-37
2022/03/13 21:55:39;;;;;;;13.93;9.90;;;9.00;97.40;;;;;;6204995;23;20106;-38
2022/03/13 21:58:04;;;;;;;14.43;9.80;;;8.90;97.40;;;;;;6185039;23;20028;-36
2022/03/13 22:00:30;;;;;;;15.10;9.73;;;9.00;97.40;;;;;;6204924;23;20032;-37
2022/03/13 22:02:56;;;;;;;13.77;9.80;;;8.90;97.40;;;;;;6204363;23;20028;-37
2022/03/13 22:05:23;;;;;;;13.87;10.07;;;8.90;97.40;;;;;;6208698;23;20021;-37
2022/03/13 22:07:51;;;;;;;14.03;10.10;;;9.00;97.40;;;;;;6183032;23;20016;-37
2022/03/13 22:10:17;;;;;;;14.60;9.60;;;8.90;97.40;;;;;;6206394;23;20043;-38
2022/03/13 22:12:45;;;;;;;15.60;9.90;;;8.90;97.30;;;;;;6204484;23;20076;-37
2022/03/13 22:15:14;;;;;;;14.27;10.27;;;8.90;97.40;;;;;;6206809;23;20060;-38
2022/03/13 22:17:40;;;;;;;15.17;9.37;;;8.90;97.70;;;;;;6140601;23;20013;-37
2022/03/13 22:20:08;;;;;;;14.23;9.60;;;8.90;97.50;;;;;;6207509;23;20058;-38
2022/03/13 22:22:34;;;;;;;14.67;10.07;;;8.90;97.50;;;;;;6207581;23;20047;-34
2022/03/13 22:25:00;;;;;;;16.93;10.33;;;9.00;97.60;;;;;;6208916;23;20027;-37
2022/03/13 22:27:26;;;;;;;17.37;10.30;;;8.90;97.60;;;;;;6191701;23;20045;-40
2022/03/13 22:29:51;;;;;;;13.10;10.30;;;8.90;97.70;;;;;;6209618;23;20208;-36
2022/03/13 22:32:17;;;;;;;17.03;10.00;;;8.90;97.60;;;;;;6207889;23;20017;-36
2022/03/13 22:34:43;;;;;;;14.33;10.37;;;8.80;97.60;;;;;;6209262;23;20090;-37
2022/03/13 22:37:09;;;;;;;13.93;9.93;;;8.90;97.70;;;;;;6191248;23;20487;-37
2022/03/13 22:39:36;;;;;;;13.43;10.00;;;9.00;97.70;;;;;;6207719;23;20020;-38
2022/03/13 22:42:04;;;;;;;18.67;10.87;;;8.90;97.80;;;;;;6208979;23;20657;-38
2022/03/13 22:44:29;;;;;;;16.13;10.50;;;8.90;97.80;;;;;;6208508;23;20020;-37
2022/03/13 22:46:57;;;;;;;15.20;10.30;;;8.80;98.00;;;;;;6166506;23;20032;-37
2022/03/13 22:49:22;;;;;;;15.00;9.57;;;8.90;98.10;;;;;;6207597;23;20024;-36
2022/03/13 22:51:51;;;;;;;14.83;10.03;;;8.90;98.10;;;;;;6209594;23;20025;-37
2022/03/13 22:54:19;;;;;;;15.67;10.67;;;9.00;98.20;;;;;;6144943;23;20025;-37
2022/03/13 22:56:49;;;;;;;15.43;11.20;;;8.90;98.40;;;;;;6193279;23;20124;-38
2022/03/13 22:59:17;;;;;;;15.90;10.97;;;8.90;98.80;;;;;;6208137;23;20020;-38
2022/03/13 23:01:44;;;;;;;17.10;11.17;;;8.80;98.90;;;;;;6207942;23;20023;-37
2022/03/13 23:04:11;;;;;;;16.53;10.33;;;8.80;99.20;;;;;;6209301;23;20024;-37
2022/03/13 23:06:38;;;;;;;19.27;11.63;;;8.80;99.40;;;;;;6194770;23;20108;-37
2022/03/13 23:09:05;;;;;;;14.27;10.93;;;8.80;99.50;;;;;;6207944;23;20032;-37
2022/03/13 23:11:36;;;;;;;16.93;10.53;;;8.80;99.80;;;;;;6209231;23;20370;-37
2022/03/13 23:14:08;;;;;;;15.18;11.40;;;8.70;99.90;;;;;;6210197;23;20020;-38
2022/03/13 23:16:37;;;;;;;14.93;10.77;;;8.70;99.90;;;;;;6195803;23;20043;-36
2022/03/13 23:19:06;;;;;;;14.07;10.70;;;8.70;99.90;;;;;;6207902;23;20028;-37
2022/03/13 23:21:35;;;;;;;15.33;11.60;;;8.70;99.90;;;;;;6210450;23;20228;-37
2022/03/13 23:24:04;;;;;;;23.53;14.33;;;8.70;99.90;;;;;;6209965;23;20528;-37
2022/03/13 23:26:31;;;;;;;16.73;11.63;;;8.60;99.90;;;;;;6196840;23;20091;-37
2022/03/13 23:28:57;;;;;;;15.87;10.83;;;8.60;99.90;;;;;;6207781;23;20029;-35
2022/03/13 23:31:27;;;;;;;16.83;11.37;;;8.60;99.90;;;;;;6209292;23;20020;-37
2022/03/13 23:33:53;;;;;;;15.87;11.20;;;8.60;99.90;;;;;;6209715;23;20028;-37
2022/03/13 23:36:19;;;;;;;15.60;11.37;;;8.70;99.90;;;;;;6198895;23;20017;-36
2022/03/13 23:38:45;;;;;;;16.87;11.47;;;8.60;99.90;;;;;;6205173;23;20031;-38
2022/03/13 23:41:14;;;;;;;16.43;11.83;;;8.60;99.90;;;;;;6210818;23;20028;-38
2022/03/13 23:43:44;;;;;;;16.80;11.50;;;8.60;99.90;;;;;;6210317;23;20058;-37
2022/03/13 23:46:10;;;;;;;19.13;12.37;;;8.60;99.90;;;;;;6203615;23;20478;-36
2022/03/13 23:48:37;;;;;;;16.30;11.80;;;8.60;99.90;;;;;;6199219;23;20110;-35
2022/03/13 23:51:02;;;;;;;18.23;11.73;;;8.50;99.90;;;;;;6183849;23;20038;-38
2022/03/13 23:53:28;;;;;;;18.50;11.73;;;8.50;99.90;;;;;;6209514;23;20091;-38
2022/03/13 23:55:54;;;;;;;18.20;12.77;;;8.50;99.90;;;;;;6211043;23;20067;-36
2022/03/13 23:58:20;;;;;;;17.30;12.50;;;8.50;99.90;;;;;;6191743;23;20071;-38
